sensor_id;sensor_type;location;lat;lon;timestamp;P1;durP1;ratioP1;P2;durP2;ratioP2
19854;SDS011;10088;47.946;2.532;2023-10-13T00:01:55;7.07;;;4.33;;
19854;SDS011;10088;47.946;2.532;2023-10-13T00:04:21;7.60;;;4.27;;
19854;SDS011;10088;47.946;2.532;2023-10-13T00:06:53;8.83;;;3.90;;
19854;SDS011;10088;47.946;2.532;2023-10-13T00:09:19;7.97;;;4.37;;
19854;SDS011;10088;47.946;2.532;2023-10-13T00:11:49;5.90;;;3.57;;
19854;SDS011;10088;47.946;2.532;2023-10-13T00:14:14;8.53;;;3.90;;
19854;SDS011;10088;47.946;2.532;2023-10-13T00:16:45;5.87;;;4.13;;
19854;SDS011;10088;47.946;2.532;2023-10-13T00:19:27;7.53;;;3.77;;
19854;SDS011;10088;47.946;2.532;2023-10-13T00:21:52;10.53;;;3.40;;
19854;SDS011;10088;47.946;2.532;2023-10-13T00:24:20;8.20;;;4.17;;
19854;SDS011;10088;47.946;2.532;2023-10-13T00:26:48;7.53;;;4.33;;
19854;SDS011;10088;47.946;2.532;2023-10-13T00:29:15;7.57;;;4.20;;
19854;SDS011;10088;47.946;2.532;2023-10-13T00:31:41;9.47;;;4.30;;
19854;SDS011;10088;47.946;2.532;2023-10-13T00:34:11;7.87;;;3.70;;
19854;SDS011;10088;47.946;2.532;2023-10-13T00:36:50;8.83;;;4.37;;
19854;SDS011;10088;47.946;2.532;2023-10-13T00:39:35;7.27;;;3.70;;
19854;SDS011;10088;47.946;2.532;2023-10-13T00:42:02;12.53;;;4.60;;
19854;SDS011;10088;47.946;2.532;2023-10-13T00:44:32;8.73;;;3.93;;
19854;SDS011;10088;47.946;2.532;2023-10-13T00:47:07;9.97;;;3.90;;
19854;SDS011;10088;47.946;2.532;2023-10-13T00:49:35;9.20;;;3.57;;
19854;SDS011;10088;47.946;2.532;2023-10-13T00:52:08;9.70;;;3.73;;
19854;SDS011;10088;47.946;2.532;2023-10-13T00:54:36;6.17;;;3.80;;
19854;SDS011;10088;47.946;2.532;2023-10-13T00:57:01;11.13;;;4.07;;
19854;SDS011;10088;47.946;2.532;2023-10-13T00:59:32;9.30;;;4.07;;
19854;SDS011;10088;47.946;2.532;2023-10-13T01:02:01;7.47;;;4.57;;
19854;SDS011;10088;47.946;2.532;2023-10-13T01:04:46;7.73;;;3.37;;
19854;SDS011;10088;47.946;2.532;2023-10-13T01:07:12;9.93;;;3.90;;
19854;SDS011;10088;47.946;2.532;2023-10-13T01:09:43;7.83;;;4.00;;
19854;SDS011;10088;47.946;2.532;2023-10-13T01:12:09;7.10;;;4.00;;
19854;SDS011;10088;47.946;2.532;2023-10-13T01:14:34;5.40;;;4.00;;
19854;SDS011;10088;47.946;2.532;2023-10-13T01:17:01;10.13;;;4.40;;
19854;SDS011;10088;47.946;2.532;2023-10-13T01:19:26;7.43;;;3.87;;
19854;SDS011;10088;47.946;2.532;2023-10-13T01:21:53;9.10;;;3.80;;
19854;SDS011;10088;47.946;2.532;2023-10-13T01:24:29;10.00;;;3.97;;
19854;SDS011;10088;47.946;2.532;2023-10-13T01:26:59;10.50;;;4.00;;
19854;SDS011;10088;47.946;2.532;2023-10-13T01:29:32;9.27;;;4.00;;
19854;SDS011;10088;47.946;2.532;2023-10-13T01:31:58;9.43;;;4.00;;
19854;SDS011;10088;47.946;2.532;2023-10-13T01:34:23;5.03;;;3.70;;
19854;SDS011;10088;47.946;2.532;2023-10-13T01:36:48;9.77;;;4.37;;
19854;SDS011;10088;47.946;2.532;2023-10-13T01:39:16;4.30;;;3.60;;
19854;SDS011;10088;47.946;2.532;2023-10-13T01:41:41;5.93;;;3.87;;
19854;SDS011;10088;47.946;2.532;2023-10-13T01:44:08;6.23;;;4.40;;
19854;SDS011;10088;47.946;2.532;2023-10-13T01:46:36;6.87;;;3.83;;
19854;SDS011;10088;47.946;2.532;2023-10-13T01:49:02;6.87;;;4.10;;
19854;SDS011;10088;47.946;2.532;2023-10-13T01:51:27;8.97;;;3.33;;
19854;SDS011;10088;47.946;2.532;2023-10-13T01:53:53;5.17;;;3.80;;
19854;SDS011;10088;47.946;2.532;2023-10-13T01:56:23;5.87;;;4.40;;
19854;SDS011;10088;47.946;2.532;2023-10-13T01:58:48;7.67;;;3.70;;
19854;SDS011;10088;47.946;2.532;2023-10-13T02:01:13;8.03;;;4.07;;
19854;SDS011;10088;47.946;2.532;2023-10-13T02:03:51;8.73;;;3.70;;
19854;SDS011;10088;47.946;2.532;2023-10-13T02:06:26;5.73;;;3.50;;
19854;SDS011;10088;47.946;2.532;2023-10-13T02:08:57;8.37;;;4.30;;
19854;SDS011;10088;47.946;2.532;2023-10-13T02:11:27;7.13;;;3.83;;
19854;SDS011;10088;47.946;2.532;2023-10-13T02:13:52;6.93;;;4.33;;
19854;SDS011;10088;47.946;2.532;2023-10-13T02:16:22;7.47;;;3.87;;
19854;SDS011;10088;47.946;2.532;2023-10-13T02:18:47;5.90;;;4.13;;
19854;SDS011;10088;47.946;2.532;2023-10-13T02:21:16;9.03;;;3.90;;
19854;SDS011;10088;47.946;2.532;2023-10-13T02:23:41;7.97;;;3.87;;
19854;SDS011;10088;47.946;2.532;2023-10-13T02:26:09;6.80;;;4.43;;
19854;SDS011;10088;47.946;2.532;2023-10-13T02:28:46;6.23;;;4.03;;
19854;SDS011;10088;47.946;2.532;2023-10-13T02:31:17;7.63;;;3.87;;
19854;SDS011;10088;47.946;2.532;2023-10-13T02:33:44;7.07;;;4.17;;
19854;SDS011;10088;47.946;2.532;2023-10-13T02:36:10;10.27;;;4.27;;
19854;SDS011;10088;47.946;2.532;2023-10-13T02:38:37;13.57;;;4.50;;
19854;SDS011;10088;47.946;2.532;2023-10-13T02:41:12;5.43;;;3.83;;
19854;SDS011;10088;47.946;2.532;2023-10-13T02:43:37;10.77;;;4.20;;
19854;SDS011;10088;47.946;2.532;2023-10-13T02:46:03;8.13;;;4.40;;
19854;SDS011;10088;47.946;2.532;2023-10-13T02:48:28;8.37;;;3.77;;
19854;SDS011;10088;47.946;2.532;2023-10-13T02:50:56;6.83;;;4.87;;
19854;SDS011;10088;47.946;2.532;2023-10-13T02:53:22;8.57;;;4.70;;
19854;SDS011;10088;47.946;2.532;2023-10-13T02:55:51;6.60;;;4.73;;
19854;SDS011;10088;47.946;2.532;2023-10-13T02:58:17;6.20;;;4.53;;
19854;SDS011;10088;47.946;2.532;2023-10-13T03:00:43;6.97;;;4.37;;
19854;SDS011;10088;47.946;2.532;2023-10-13T03:03:09;6.33;;;4.20;;
19854;SDS011;10088;47.946;2.532;2023-10-13T03:05:34;10.33;;;4.80;;
19854;SDS011;10088;47.946;2.532;2023-10-13T03:08:03;7.13;;;4.50;;
19854;SDS011;10088;47.946;2.532;2023-10-13T03:10:29;5.77;;;3.90;;
19854;SDS011;10088;47.946;2.532;2023-10-13T03:12:54;5.83;;;3.80;;
19854;SDS011;10088;47.946;2.532;2023-10-13T03:15:20;7.50;;;4.40;;
19854;SDS011;10088;47.946;2.532;2023-10-13T03:17:47;7.27;;;4.37;;
19854;SDS011;10088;47.946;2.532;2023-10-13T03:20:14;9.00;;;4.10;;
19854;SDS011;10088;47.946;2.532;2023-10-13T03:22:41;6.27;;;3.93;;
19854;SDS011;10088;47.946;2.532;2023-10-13T03:25:10;6.83;;;4.60;;
19854;SDS011;10088;47.946;2.532;2023-10-13T03:27:42;11.60;;;4.80;;
19854;SDS011;10088;47.946;2.532;2023-10-13T03:30:13;7.37;;;4.53;;
19854;SDS011;10088;47.946;2.532;2023-10-13T03:32:40;7.47;;;4.20;;
19854;SDS011;10088;47.946;2.532;2023-10-13T03:35:10;7.80;;;4.40;;
19854;SDS011;10088;47.946;2.532;2023-10-13T03:37:38;8.07;;;4.30;;
19854;SDS011;10088;47.946;2.532;2023-10-13T03:40:13;7.20;;;4.77;;
19854;SDS011;10088;47.946;2.532;2023-10-13T03:45:34;7.37;;;4.27;;
19854;SDS011;10088;47.946;2.532;2023-10-13T03:48:13;7.30;;;5.00;;
19854;SDS011;10088;47.946;2.532;2023-10-13T03:51:00;6.83;;;4.53;;
19854;SDS011;10088;47.946;2.532;2023-10-13T03:53:29;11.63;;;4.77;;
19854;SDS011;10088;47.946;2.532;2023-10-13T03:55:58;8.03;;;4.50;;
19854;SDS011;10088;47.946;2.532;2023-10-13T03:58:36;9.77;;;4.17;;
19854;SDS011;10088;47.946;2.532;2023-10-13T04:01:04;9.47;;;4.27;;
19854;SDS011;10088;47.946;2.532;2023-10-13T04:03:29;7.33;;;4.30;;
19854;SDS011;10088;47.946;2.532;2023-10-13T04:06:06;6.53;;;3.97;;
19854;SDS011;10088;47.946;2.532;2023-10-13T04:08:33;8.23;;;4.57;;
19854;SDS011;10088;47.946;2.532;2023-10-13T04:11:07;7.40;;;4.63;;
19854;SDS011;10088;47.946;2.532;2023-10-13T04:13:51;12.57;;;4.50;;
19854;SDS011;10088;47.946;2.532;2023-10-13T04:16:35;8.30;;;4.30;;
19854;SDS011;10088;47.946;2.532;2023-10-13T04:19:01;7.57;;;4.10;;
19854;SDS011;10088;47.946;2.532;2023-10-13T04:21:27;7.13;;;4.43;;
19854;SDS011;10088;47.946;2.532;2023-10-13T04:24:08;6.00;;;4.00;;
19854;SDS011;10088;47.946;2.532;2023-10-13T04:26:48;7.10;;;4.17;;
19854;SDS011;10088;47.946;2.532;2023-10-13T04:29:32;5.80;;;4.30;;
19854;SDS011;10088;47.946;2.532;2023-10-13T04:32:16;6.87;;;4.40;;
19854;SDS011;10088;47.946;2.532;2023-10-13T04:34:54;6.70;;;4.13;;
19854;SDS011;10088;47.946;2.532;2023-10-13T04:37:23;6.53;;;4.63;;
19854;SDS011;10088;47.946;2.532;2023-10-13T04:39:55;6.33;;;4.27;;
19854;SDS011;10088;47.946;2.532;2023-10-13T04:42:36;6.83;;;4.00;;
19854;SDS011;10088;47.946;2.532;2023-10-13T04:45:14;9.17;;;4.23;;
19854;SDS011;10088;47.946;2.532;2023-10-13T04:47:58;5.30;;;3.97;;
19854;SDS011;10088;47.946;2.532;2023-10-13T04:50:39;6.27;;;4.23;;
19854;SDS011;10088;47.946;2.532;2023-10-13T04:53:11;5.70;;;4.10;;
19854;SDS011;10088;47.946;2.532;2023-10-13T04:55:53;8.10;;;4.67;;
19854;SDS011;10088;47.946;2.532;2023-10-13T04:58:27;8.27;;;4.47;;
19854;SDS011;10088;47.946;2.532;2023-10-13T05:01:13;8.60;;;4.20;;
19854;SDS011;10088;47.946;2.532;2023-10-13T05:03:50;8.10;;;5.63;;
19854;SDS011;10088;47.946;2.532;2023-10-13T05:06:46;4.80;;;3.43;;
19854;SDS011;10088;47.946;2.532;2023-10-13T05:09:12;6.37;;;3.90;;
19854;SDS011;10088;47.946;2.532;2023-10-13T05:11:56;5.97;;;3.70;;
19854;SDS011;10088;47.946;2.532;2023-10-13T05:14:40;7.23;;;4.17;;
19854;SDS011;10088;47.946;2.532;2023-10-13T05:17:24;4.43;;;3.83;;
19854;SDS011;10088;47.946;2.532;2023-10-13T05:20:08;6.60;;;4.10;;
19854;SDS011;10088;47.946;2.532;2023-10-13T05:22:52;4.63;;;3.37;;
19854;SDS011;10088;47.946;2.532;2023-10-13T05:25:36;4.80;;;3.77;;
19854;SDS011;10088;47.946;2.532;2023-10-13T05:28:20;10.90;;;4.10;;
19854;SDS011;10088;47.946;2.532;2023-10-13T05:31:04;5.40;;;3.80;;
19854;SDS011;10088;47.946;2.532;2023-10-13T05:33:48;5.60;;;3.37;;
19854;SDS011;10088;47.946;2.532;2023-10-13T05:36:32;8.93;;;3.80;;
19854;SDS011;10088;47.946;2.532;2023-10-13T05:39:16;4.67;;;3.40;;
19854;SDS011;10088;47.946;2.532;2023-10-13T05:42:00;10.73;;;3.83;;
19854;SDS011;10088;47.946;2.532;2023-10-13T05:44:44;7.73;;;3.40;;
19854;SDS011;10088;47.946;2.532;2023-10-13T05:47:42;7.77;;;3.47;;
19854;SDS011;10088;47.946;2.532;2023-10-13T05:50:07;6.47;;;3.63;;
19854;SDS011;10088;47.946;2.532;2023-10-13T05:52:55;5.00;;;3.43;;
19854;SDS011;10088;47.946;2.532;2023-10-13T05:55:24;5.83;;;3.73;;
19854;SDS011;10088;47.946;2.532;2023-10-13T05:58:08;8.23;;;4.43;;
19854;SDS011;10088;47.946;2.532;2023-10-13T06:00:52;5.47;;;4.07;;
19854;SDS011;10088;47.946;2.532;2023-10-13T06:03:36;5.70;;;3.77;;
19854;SDS011;10088;47.946;2.532;2023-10-13T06:06:20;4.60;;;3.00;;
19854;SDS011;10088;47.946;2.532;2023-10-13T06:09:04;4.27;;;2.93;;
19854;SDS011;10088;47.946;2.532;2023-10-13T06:11:48;5.23;;;3.10;;
19854;SDS011;10088;47.946;2.532;2023-10-13T06:14:31;4.23;;;2.73;;
19854;SDS011;10088;47.946;2.532;2023-10-13T06:17:15;5.50;;;3.17;;
19854;SDS011;10088;47.946;2.532;2023-10-13T06:19:59;6.20;;;3.40;;
19854;SDS011;10088;47.946;2.532;2023-10-13T06:22:46;7.20;;;4.20;;
19854;SDS011;10088;47.946;2.532;2023-10-13T06:25:30;6.17;;;3.27;;
19854;SDS011;10088;47.946;2.532;2023-10-13T06:28:14;7.27;;;4.13;;
19854;SDS011;10088;47.946;2.532;2023-10-13T06:30:58;6.90;;;3.10;;
19854;SDS011;10088;47.946;2.532;2023-10-13T06:33:24;5.83;;;3.03;;
19854;SDS011;10088;47.946;2.532;2023-10-13T06:35:54;7.13;;;3.17;;
19854;SDS011;10088;47.946;2.532;2023-10-13T06:38:21;7.63;;;3.40;;
19854;SDS011;10088;47.946;2.532;2023-10-13T06:40:46;5.20;;;3.13;;
19854;SDS011;10088;47.946;2.532;2023-10-13T06:43:13;8.87;;;3.57;;
19854;SDS011;10088;47.946;2.532;2023-10-13T06:45:42;3.63;;;2.73;;
19854;SDS011;10088;47.946;2.532;2023-10-13T06:48:08;3.93;;;3.27;;
19854;SDS011;10088;47.946;2.532;2023-10-13T06:50:37;5.97;;;3.03;;
19854;SDS011;10088;47.946;2.532;2023-10-13T06:53:07;3.87;;;3.03;;
19854;SDS011;10088;47.946;2.532;2023-10-13T06:55:32;6.37;;;3.80;;
19854;SDS011;10088;47.946;2.532;2023-10-13T06:58:00;9.90;;;3.20;;
19854;SDS011;10088;47.946;2.532;2023-10-13T07:00:26;4.13;;;3.13;;
19854;SDS011;10088;47.946;2.532;2023-10-13T07:02:58;3.00;;;2.47;;
19854;SDS011;10088;47.946;2.532;2023-10-13T07:05:49;6.20;;;3.20;;
19854;SDS011;10088;47.946;2.532;2023-10-13T07:08:14;5.40;;;3.00;;
19854;SDS011;10088;47.946;2.532;2023-10-13T07:10:51;7.07;;;3.23;;
19854;SDS011;10088;47.946;2.532;2023-10-13T07:13:27;6.07;;;3.33;;
19854;SDS011;10088;47.946;2.532;2023-10-13T07:15:53;5.37;;;3.80;;
19854;SDS011;10088;47.946;2.532;2023-10-13T07:18:25;6.23;;;3.37;;
19854;SDS011;10088;47.946;2.532;2023-10-13T07:20:50;6.43;;;2.93;;
19854;SDS011;10088;47.946;2.532;2023-10-13T07:23:15;6.27;;;3.40;;
19854;SDS011;10088;47.946;2.532;2023-10-13T07:25:54;4.13;;;2.80;;
19854;SDS011;10088;47.946;2.532;2023-10-13T07:28:27;5.60;;;3.27;;
19854;SDS011;10088;47.946;2.532;2023-10-13T07:30:52;7.83;;;3.40;;
19854;SDS011;10088;47.946;2.532;2023-10-13T07:33:21;5.37;;;3.07;;
19854;SDS011;10088;47.946;2.532;2023-10-13T07:35:46;5.77;;;3.00;;
19854;SDS011;10088;47.946;2.532;2023-10-13T07:38:15;9.30;;;3.17;;
19854;SDS011;10088;47.946;2.532;2023-10-13T07:40:41;6.50;;;3.97;;
19854;SDS011;10088;47.946;2.532;2023-10-13T07:43:06;5.33;;;2.53;;
19854;SDS011;10088;47.946;2.532;2023-10-13T07:45:36;4.70;;;3.23;;
19854;SDS011;10088;47.946;2.532;2023-10-13T07:48:02;4.70;;;3.23;;
19854;SDS011;10088;47.946;2.532;2023-10-13T07:50:33;5.10;;;2.93;;
19854;SDS011;10088;47.946;2.532;2023-10-13T07:52:59;6.23;;;3.27;;
19854;SDS011;10088;47.946;2.532;2023-10-13T07:55:30;3.73;;;2.83;;
19854;SDS011;10088;47.946;2.532;2023-10-13T07:57:57;5.90;;;3.00;;
19854;SDS011;10088;47.946;2.532;2023-10-13T08:00:24;7.17;;;2.70;;
19854;SDS011;10088;47.946;2.532;2023-10-13T08:03:08;5.30;;;3.30;;
19854;SDS011;10088;47.946;2.532;2023-10-13T08:05:51;6.83;;;3.30;;
19854;SDS011;10088;47.946;2.532;2023-10-13T08:08:31;5.07;;;3.20;;
19854;SDS011;10088;47.946;2.532;2023-10-13T08:11:06;5.00;;;2.97;;
19854;SDS011;10088;47.946;2.532;2023-10-13T08:13:53;12.53;;;3.53;;
19854;SDS011;10088;47.946;2.532;2023-10-13T08:16:28;4.30;;;3.10;;
19854;SDS011;10088;47.946;2.532;2023-10-13T08:19:16;6.07;;;3.07;;
19854;SDS011;10088;47.946;2.532;2023-10-13T08:21:42;4.57;;;3.07;;
19854;SDS011;10088;47.946;2.532;2023-10-13T08:24:15;6.97;;;3.23;;
19854;SDS011;10088;47.946;2.532;2023-10-13T08:26:40;5.87;;;3.40;;
19854;SDS011;10088;47.946;2.532;2023-10-13T08:29:24;9.70;;;3.83;;
19854;SDS011;10088;47.946;2.532;2023-10-13T08:31:53;5.63;;;2.87;;
19854;SDS011;10088;47.946;2.532;2023-10-13T08:34:37;9.37;;;3.10;;
19854;SDS011;10088;47.946;2.532;2023-10-13T08:37:12;4.30;;;2.90;;
19854;SDS011;10088;47.946;2.532;2023-10-13T08:39:50;9.53;;;3.13;;
19854;SDS011;10088;47.946;2.532;2023-10-13T08:45:09;4.17;;;3.50;;
19854;SDS011;10088;47.946;2.532;2023-10-13T08:47:49;13.30;;;3.20;;
19854;SDS011;10088;47.946;2.532;2023-10-13T08:53:28;6.30;;;2.80;;
19854;SDS011;10088;47.946;2.532;2023-10-13T08:58:31;3.83;;;3.07;;
19854;SDS011;10088;47.946;2.532;2023-10-13T09:01:15;6.33;;;3.10;;
19854;SDS011;10088;47.946;2.532;2023-10-13T09:04:00;5.30;;;3.10;;
19854;SDS011;10088;47.946;2.532;2023-10-13T09:06:46;6.97;;;2.90;;
19854;SDS011;10088;47.946;2.532;2023-10-13T09:12:13;5.17;;;2.77;;
19854;SDS011;10088;47.946;2.532;2023-10-13T09:14:42;5.07;;;2.77;;
19854;SDS011;10088;47.946;2.532;2023-10-13T09:17:11;4.90;;;3.20;;
19854;SDS011;10088;47.946;2.532;2023-10-13T09:19:55;5.13;;;2.70;;
19854;SDS011;10088;47.946;2.532;2023-10-13T09:22:24;4.47;;;2.93;;
19854;SDS011;10088;47.946;2.532;2023-10-13T09:24:53;4.13;;;2.83;;
19854;SDS011;10088;47.946;2.532;2023-10-13T09:27:18;4.17;;;2.77;;
19854;SDS011;10088;47.946;2.532;2023-10-13T09:29:53;5.90;;;2.93;;
19854;SDS011;10088;47.946;2.532;2023-10-13T09:32:19;6.03;;;2.90;;
19854;SDS011;10088;47.946;2.532;2023-10-13T09:34:46;5.80;;;2.57;;
19854;SDS011;10088;47.946;2.532;2023-10-13T09:37:13;5.57;;;2.30;;
19854;SDS011;10088;47.946;2.532;2023-10-13T09:39:45;5.93;;;2.30;;
19854;SDS011;10088;47.946;2.532;2023-10-13T09:42:13;5.57;;;2.20;;
19854;SDS011;10088;47.946;2.532;2023-10-13T09:44:40;4.70;;;2.30;;
19854;SDS011;10088;47.946;2.532;2023-10-13T09:47:08;8.47;;;2.57;;
19854;SDS011;10088;47.946;2.532;2023-10-13T09:49:43;4.77;;;2.37;;
19854;SDS011;10088;47.946;2.532;2023-10-13T09:52:15;2.03;;;1.80;;
19854;SDS011;10088;47.946;2.532;2023-10-13T09:54:51;3.60;;;2.40;;
19854;SDS011;10088;47.946;2.532;2023-10-13T09:57:24;6.17;;;2.63;;
19854;SDS011;10088;47.946;2.532;2023-10-13T10:00:15;3.13;;;2.23;;
19854;SDS011;10088;47.946;2.532;2023-10-13T10:02:55;2.50;;;1.87;;
19854;SDS011;10088;47.946;2.532;2023-10-13T10:05:24;4.40;;;2.47;;
19854;SDS011;10088;47.946;2.532;2023-10-13T10:07:56;5.17;;;2.30;;
19854;SDS011;10088;47.946;2.532;2023-10-13T10:10:26;5.77;;;2.90;;
19854;SDS011;10088;47.946;2.532;2023-10-13T10:12:55;7.57;;;2.57;;
19854;SDS011;10088;47.946;2.532;2023-10-13T10:15:35;7.83;;;2.67;;
19854;SDS011;10088;47.946;2.532;2023-10-13T10:18:17;2.60;;;1.93;;
19854;SDS011;10088;47.946;2.532;2023-10-13T10:20:44;5.90;;;2.80;;
19854;SDS011;10088;47.946;2.532;2023-10-13T10:23:25;5.33;;;2.00;;
19854;SDS011;10088;47.946;2.532;2023-10-13T10:25:54;3.47;;;2.33;;
19854;SDS011;10088;47.946;2.532;2023-10-13T10:28:36;3.73;;;2.30;;
19854;SDS011;10088;47.946;2.532;2023-10-13T10:31:06;6.03;;;3.00;;
19854;SDS011;10088;47.946;2.532;2023-10-13T10:33:38;6.27;;;2.93;;
19854;SDS011;10088;47.946;2.532;2023-10-13T10:36:03;4.80;;;2.37;;
19854;SDS011;10088;47.946;2.532;2023-10-13T10:38:30;2.67;;;2.07;;
19854;SDS011;10088;47.946;2.532;2023-10-13T10:41:00;5.07;;;2.50;;
19854;SDS011;10088;47.946;2.532;2023-10-13T10:48:40;4.47;;;2.23;;
19854;SDS011;10088;47.946;2.532;2023-10-13T10:51:14;4.23;;;2.30;;
19854;SDS011;10088;47.946;2.532;2023-10-13T10:53:55;4.53;;;2.63;;
19854;SDS011;10088;47.946;2.532;2023-10-13T10:56:37;11.60;;;3.03;;
19854;SDS011;10088;47.946;2.532;2023-10-13T10:59:39;6.00;;;2.70;;
19854;SDS011;10088;47.946;2.532;2023-10-13T11:02:19;4.57;;;2.73;;
19854;SDS011;10088;47.946;2.532;2023-10-13T11:05:30;6.30;;;2.90;;
19854;SDS011;10088;47.946;2.532;2023-10-13T11:08:23;7.50;;;2.50;;
19854;SDS011;10088;47.946;2.532;2023-10-13T11:11:08;6.10;;;2.47;;
19854;SDS011;10088;47.946;2.532;2023-10-13T11:13:44;6.00;;;2.63;;
19854;SDS011;10088;47.946;2.532;2023-10-13T11:16:22;4.33;;;2.30;;
19854;SDS011;10088;47.946;2.532;2023-10-13T11:22:19;4.03;;;2.60;;
19854;SDS011;10088;47.946;2.532;2023-10-13T11:25:04;5.33;;;2.50;;
19854;SDS011;10088;47.946;2.532;2023-10-13T11:27:36;6.87;;;2.30;;
19854;SDS011;10088;47.946;2.532;2023-10-13T11:30:14;6.80;;;2.57;;
19854;SDS011;10088;47.946;2.532;2023-10-13T11:32:40;9.13;;;2.80;;
19854;SDS011;10088;47.946;2.532;2023-10-13T11:35:07;5.63;;;3.03;;
19854;SDS011;10088;47.946;2.532;2023-10-13T11:37:36;5.77;;;2.37;;
19854;SDS011;10088;47.946;2.532;2023-10-13T11:40:08;4.20;;;2.50;;
19854;SDS011;10088;47.946;2.532;2023-10-13T11:42:37;4.30;;;2.47;;
19854;SDS011;10088;47.946;2.532;2023-10-13T11:45:02;8.73;;;2.47;;
19854;SDS011;10088;47.946;2.532;2023-10-13T11:47:46;8.00;;;2.47;;
19854;SDS011;10088;47.946;2.532;2023-10-13T11:50:24;4.63;;;2.30;;
19854;SDS011;10088;47.946;2.532;2023-10-13T11:53:00;4.07;;;2.60;;
19854;SDS011;10088;47.946;2.532;2023-10-13T11:55:25;4.77;;;2.90;;
19854;SDS011;10088;47.946;2.532;2023-10-13T11:57:51;3.00;;;2.50;;
19854;SDS011;10088;47.946;2.532;2023-10-13T12:00:16;9.27;;;2.90;;
19854;SDS011;10088;47.946;2.532;2023-10-13T12:02:52;10.27;;;3.03;;
19854;SDS011;10088;47.946;2.532;2023-10-13T12:05:36;3.63;;;2.37;;
19854;SDS011;10088;47.946;2.532;2023-10-13T12:08:14;3.10;;;2.50;;
19854;SDS011;10088;47.946;2.532;2023-10-13T12:10:48;8.60;;;3.37;;
19854;SDS011;10088;47.946;2.532;2023-10-13T12:13:25;6.37;;;2.70;;
19854;SDS011;10088;47.946;2.532;2023-10-13T12:15:50;2.97;;;2.50;;
19854;SDS011;10088;47.946;2.532;2023-10-13T12:18:17;8.33;;;2.67;;
19854;SDS011;10088;47.946;2.532;2023-10-13T12:20:44;3.97;;;2.47;;
19854;SDS011;10088;47.946;2.532;2023-10-13T12:23:11;6.43;;;2.50;;
19854;SDS011;10088;47.946;2.532;2023-10-13T12:25:41;5.03;;;2.97;;
19854;SDS011;10088;47.946;2.532;2023-10-13T12:28:24;3.40;;;1.80;;
19854;SDS011;10088;47.946;2.532;2023-10-13T12:30:52;3.50;;;2.20;;
19854;SDS011;10088;47.946;2.532;2023-10-13T12:33:21;5.47;;;2.43;;
19854;SDS011;10088;47.946;2.532;2023-10-13T12:36:10;5.20;;;2.70;;
19854;SDS011;10088;47.946;2.532;2023-10-13T12:38:40;3.80;;;2.20;;
19854;SDS011;10088;47.946;2.532;2023-10-13T12:41:11;4.57;;;2.40;;
19854;SDS011;10088;47.946;2.532;2023-10-13T12:43:55;3.77;;;2.60;;
19854;SDS011;10088;47.946;2.532;2023-10-13T12:46:39;9.43;;;2.60;;
19854;SDS011;10088;47.946;2.532;2023-10-13T12:49:23;3.93;;;2.57;;
19854;SDS011;10088;47.946;2.532;2023-10-13T12:52:14;5.70;;;2.50;;
19854;SDS011;10088;47.946;2.532;2023-10-13T12:54:58;4.23;;;2.20;;
19854;SDS011;10088;47.946;2.532;2023-10-13T12:59:49;8.73;;;3.10;;
19854;SDS011;10088;47.946;2.532;2023-10-13T13:02:14;6.57;;;2.70;;
19854;SDS011;10088;47.946;2.532;2023-10-13T13:04:43;5.70;;;2.67;;
19854;SDS011;10088;47.946;2.532;2023-10-13T13:07:16;7.43;;;2.33;;
19854;SDS011;10088;47.946;2.532;2023-10-13T13:09:41;9.50;;;2.80;;
19854;SDS011;10088;47.946;2.532;2023-10-13T13:12:06;3.43;;;2.33;;
19854;SDS011;10088;47.946;2.532;2023-10-13T13:14:32;5.33;;;2.80;;
19854;SDS011;10088;47.946;2.532;2023-10-13T13:16:59;5.03;;;2.03;;
19854;SDS011;10088;47.946;2.532;2023-10-13T13:19:32;7.13;;;2.37;;
19854;SDS011;10088;47.946;2.532;2023-10-13T13:22:01;4.90;;;2.60;;
19854;SDS011;10088;47.946;2.532;2023-10-13T13:24:27;8.23;;;2.93;;
19854;SDS011;10088;47.946;2.532;2023-10-13T13:26:55;5.53;;;2.70;;
19854;SDS011;10088;47.946;2.532;2023-10-13T13:29:20;8.37;;;1.93;;
19854;SDS011;10088;47.946;2.532;2023-10-13T13:31:45;8.17;;;2.67;;
19854;SDS011;10088;47.946;2.532;2023-10-13T13:34:11;8.53;;;2.57;;
19854;SDS011;10088;47.946;2.532;2023-10-13T13:36:38;10.57;;;3.03;;
19854;SDS011;10088;47.946;2.532;2023-10-13T13:39:03;7.97;;;2.70;;
19854;SDS011;10088;47.946;2.532;2023-10-13T13:41:29;7.80;;;2.83;;
19854;SDS011;10088;47.946;2.532;2023-10-13T13:43:57;7.40;;;2.87;;
19854;SDS011;10088;47.946;2.532;2023-10-13T13:46:26;8.97;;;3.03;;
19854;SDS011;10088;47.946;2.532;2023-10-13T13:48:58;6.90;;;2.93;;
19854;SDS011;10088;47.946;2.532;2023-10-13T13:51:24;6.63;;;3.20;;
19854;SDS011;10088;47.946;2.532;2023-10-13T13:53:53;5.03;;;2.90;;
19854;SDS011;10088;47.946;2.532;2023-10-13T13:56:19;7.03;;;3.23;;
19854;SDS011;10088;47.946;2.532;2023-10-13T13:58:45;10.63;;;3.27;;
19854;SDS011;10088;47.946;2.532;2023-10-13T14:01:10;7.87;;;2.97;;
19854;SDS011;10088;47.946;2.532;2023-10-13T14:03:47;8.47;;;2.97;;
19854;SDS011;10088;47.946;2.532;2023-10-13T14:08:46;4.83;;;2.83;;
19854;SDS011;10088;47.946;2.532;2023-10-13T14:11:14;7.60;;;3.00;;
19854;SDS011;10088;47.946;2.532;2023-10-13T14:13:47;9.80;;;3.00;;
19854;SDS011;10088;47.946;2.532;2023-10-13T14:16:16;10.93;;;2.73;;
19854;SDS011;10088;47.946;2.532;2023-10-13T14:18:42;11.03;;;3.67;;
19854;SDS011;10088;47.946;2.532;2023-10-13T14:21:08;5.00;;;2.50;;
19854;SDS011;10088;47.946;2.532;2023-10-13T14:23:33;5.63;;;2.37;;
19854;SDS011;10088;47.946;2.532;2023-10-13T14:25:59;10.70;;;3.33;;
19854;SDS011;10088;47.946;2.532;2023-10-13T14:28:24;9.47;;;3.30;;
19854;SDS011;10088;47.946;2.532;2023-10-13T14:31:03;10.63;;;2.90;;
19854;SDS011;10088;47.946;2.532;2023-10-13T14:33:34;9.10;;;3.07;;
19854;SDS011;10088;47.946;2.532;2023-10-13T14:36:02;6.73;;;3.27;;
19854;SDS011;10088;47.946;2.532;2023-10-13T14:38:29;10.30;;;2.80;;
19854;SDS011;10088;47.946;2.532;2023-10-13T14:40:58;10.43;;;2.70;;
19854;SDS011;10088;47.946;2.532;2023-10-13T14:43:23;8.50;;;3.00;;
19854;SDS011;10088;47.946;2.532;2023-10-13T14:45:52;8.07;;;3.33;;
19854;SDS011;10088;47.946;2.532;2023-10-13T14:48:18;11.83;;;3.07;;
19854;SDS011;10088;47.946;2.532;2023-10-13T14:50:43;14.40;;;3.27;;
19854;SDS011;10088;47.946;2.532;2023-10-13T14:53:10;11.17;;;3.40;;
19854;SDS011;10088;47.946;2.532;2023-10-13T14:55:35;9.23;;;2.97;;
19854;SDS011;10088;47.946;2.532;2023-10-13T14:58:04;5.47;;;2.80;;
19854;SDS011;10088;47.946;2.532;2023-10-13T15:00:29;7.73;;;2.93;;
19854;SDS011;10088;47.946;2.532;2023-10-13T15:02:56;5.70;;;2.77;;
19854;SDS011;10088;47.946;2.532;2023-10-13T15:05:26;5.97;;;2.70;;
19854;SDS011;10088;47.946;2.532;2023-10-13T15:07:54;7.57;;;2.90;;
19854;SDS011;10088;47.946;2.532;2023-10-13T15:10:21;8.97;;;2.50;;
19854;SDS011;10088;47.946;2.532;2023-10-13T15:12:46;5.77;;;3.03;;
19854;SDS011;10088;47.946;2.532;2023-10-13T15:15:11;8.13;;;2.40;;
19854;SDS011;10088;47.946;2.532;2023-10-13T15:17:44;9.33;;;3.43;;
19854;SDS011;10088;47.946;2.532;2023-10-13T15:20:10;7.70;;;3.33;;
19854;SDS011;10088;47.946;2.532;2023-10-13T15:22:41;7.53;;;3.20;;
19854;SDS011;10088;47.946;2.532;2023-10-13T15:25:06;8.00;;;3.13;;
19854;SDS011;10088;47.946;2.532;2023-10-13T15:27:45;7.47;;;3.20;;
19854;SDS011;10088;47.946;2.532;2023-10-13T15:30:19;7.67;;;2.67;;
19854;SDS011;10088;47.946;2.532;2023-10-13T15:32:45;4.70;;;2.90;;
19854;SDS011;10088;47.946;2.532;2023-10-13T15:35:11;7.97;;;3.03;;
19854;SDS011;10088;47.946;2.532;2023-10-13T15:37:41;8.50;;;2.93;;
19854;SDS011;10088;47.946;2.532;2023-10-13T15:40:07;6.03;;;3.07;;
19854;SDS011;10088;47.946;2.532;2023-10-13T15:42:40;7.97;;;3.27;;
19854;SDS011;10088;47.946;2.532;2023-10-13T15:45:06;8.97;;;3.70;;